sensor_id;sensor_type;location;lat;lon;timestamp;temperature;humidity
49679;DHT22;35570;48.218;16.326;2023-05-28T00:00:11;17.30;55.20
49679;DHT22;35570;48.218;16.326;2023-05-28T00:02:37;17.20;55.60
49679;DHT22;35570;48.218;16.326;2023-05-28T00:05:04;17.20;55.90
49679;DHT22;35570;48.218;16.326;2023-05-28T00:07:30;17.20;55.60
49679;DHT22;35570;48.218;16.326;2023-05-28T00:09:56;17.20;55.90
49679;DHT22;35570;48.218;16.326;2023-05-28T00:12:22;17.20;56.60
49679;DHT22;35570;48.218;16.326;2023-05-28T00:14:48;17.20;55.70
49679;DHT22;35570;48.218;16.326;2023-05-28T00:17:14;17.10;55.30
49679;DHT22;35570;48.218;16.326;2023-05-28T00:19:59;17.00;55.80
49679;DHT22;35570;48.218;16.326;2023-05-28T00:22:25;16.90;56.80
49679;DHT22;35570;48.218;16.326;2023-05-28T00:24:51;16.90;56.10
49679;DHT22;35570;48.218;16.326;2023-05-28T00:27:16;17.00;57.00
49679;DHT22;35570;48.218;16.326;2023-05-28T00:29:42;16.90;55.70
49679;DHT22;35570;48.218;16.326;2023-05-28T00:32:09;16.90;55.90
49679;DHT22;35570;48.218;16.326;2023-05-28T00:34:35;17.00;56.80
49679;DHT22;35570;48.218;16.326;2023-05-28T00:37:00;17.10;56.30
49679;DHT22;35570;48.218;16.326;2023-05-28T00:39:26;17.10;56.30
49679;DHT22;35570;48.218;16.326;2023-05-28T00:42:03;17.10;55.80
49679;DHT22;35570;48.218;16.326;2023-05-28T00:44:30;17.00;55.40
49679;DHT22;35570;48.218;16.326;2023-05-28T00:46:59;16.90;55.20
49679;DHT22;35570;48.218;16.326;2023-05-28T00:49:25;16.80;56.50
49679;DHT22;35570;48.218;16.326;2023-05-28T00:51:58;16.80;56.40
49679;DHT22;35570;48.218;16.326;2023-05-28T00:54:25;16.90;56.20
49679;DHT22;35570;48.218;16.326;2023-05-28T00:56:54;16.90;56.50
49679;DHT22;35570;48.218;16.326;2023-05-28T00:59:20;16.90;56.80
49679;DHT22;35570;48.218;16.326;2023-05-28T01:01:47;16.90;56.40
49679;DHT22;35570;48.218;16.326;2023-05-28T01:04:13;16.80;55.60
49679;DHT22;35570;48.218;16.326;2023-05-28T01:06:39;16.80;56.10
49679;DHT22;35570;48.218;16.326;2023-05-28T01:09:08;16.80;56.80
49679;DHT22;35570;48.218;16.326;2023-05-28T01:11:35;16.70;56.70
49679;DHT22;35570;48.218;16.326;2023-05-28T01:14:02;16.80;56.10
49679;DHT22;35570;48.218;16.326;2023-05-28T01:16:28;16.70;56.50
49679;DHT22;35570;48.218;16.326;2023-05-28T01:18:54;16.70;56.40
49679;DHT22;35570;48.218;16.326;2023-05-28T01:21:22;16.70;56.80
49679;DHT22;35570;48.218;16.326;2023-05-28T01:23:49;16.70;57.10
49679;DHT22;35570;48.218;16.326;2023-05-28T01:26:16;16.70;57.10
49679;DHT22;35570;48.218;16.326;2023-05-28T01:28:46;16.70;57.10
49679;DHT22;35570;48.218;16.326;2023-05-28T01:31:13;16.60;57.70
49679;DHT22;35570;48.218;16.326;2023-05-28T01:33:39;16.60;56.90
49679;DHT22;35570;48.218;16.326;2023-05-28T01:36:11;16.50;57.90
49679;DHT22;35570;48.218;16.326;2023-05-28T01:38:41;16.50;57.70
49679;DHT22;35570;48.218;16.326;2023-05-28T01:41:09;16.50;58.00
49679;DHT22;35570;48.218;16.326;2023-05-28T01:43:36;16.50;58.20
49679;DHT22;35570;48.218;16.326;2023-05-28T01:46:02;16.50;58.00
49679;DHT22;35570;48.218;16.326;2023-05-28T01:48:28;16.50;58.50
49679;DHT22;35570;48.218;16.326;2023-05-28T01:50:55;16.50;58.40
49679;DHT22;35570;48.218;16.326;2023-05-28T01:53:20;16.40;57.70
49679;DHT22;35570;48.218;16.326;2023-05-28T01:55:46;16.40;58.20
49679;DHT22;35570;48.218;16.326;2023-05-28T01:58:12;16.40;58.40
49679;DHT22;35570;48.218;16.326;2023-05-28T02:00:49;16.30;58.80
49679;DHT22;35570;48.218;16.326;2023-05-28T02:03:18;16.20;58.80
49679;DHT22;35570;48.218;16.326;2023-05-28T02:05:44;16.20;59.50
49679;DHT22;35570;48.218;16.326;2023-05-28T02:08:09;16.20;59.40
49679;DHT22;35570;48.218;16.326;2023-05-28T02:10:35;16.20;58.70
49679;DHT22;35570;48.218;16.326;2023-05-28T02:13:01;16.20;59.80
49679;DHT22;35570;48.218;16.326;2023-05-28T02:15:26;16.10;59.50
49679;DHT22;35570;48.218;16.326;2023-05-28T02:17:52;16.10;59.50
49679;DHT22;35570;48.218;16.326;2023-05-28T02:23:27;16.00;59.50
49679;DHT22;35570;48.218;16.326;2023-05-28T02:25:53;16.00;59.50
49679;DHT22;35570;48.218;16.326;2023-05-28T02:28:18;15.90;59.70
49679;DHT22;35570;48.218;16.326;2023-05-28T02:30:44;15.90;60.00
49679;DHT22;35570;48.218;16.326;2023-05-28T02:33:10;15.90;59.70
49679;DHT22;35570;48.218;16.326;2023-05-28T02:35:35;15.80;60.60
49679;DHT22;35570;48.218;16.326;2023-05-28T02:38:01;15.80;60.00
49679;DHT22;35570;48.218;16.326;2023-05-28T02:40:26;15.70;60.50
49679;DHT22;35570;48.218;16.326;2023-05-28T02:42:52;15.70;60.00
49679;DHT22;35570;48.218;16.326;2023-05-28T02:45:18;15.70;60.40
49679;DHT22;35570;48.218;16.326;2023-05-28T02:48:02;15.60;61.30
49679;DHT22;35570;48.218;16.326;2023-05-28T02:50:28;15.60;61.60
49679;DHT22;35570;48.218;16.326;2023-05-28T02:52:54;15.60;61.40
49679;DHT22;35570;48.218;16.326;2023-05-28T02:55:19;15.70;61.50
49679;DHT22;35570;48.218;16.326;2023-05-28T02:57:45;15.70;60.80
49679;DHT22;35570;48.218;16.326;2023-05-28T03:00:12;15.70;60.70
49679;DHT22;35570;48.218;16.326;2023-05-28T03:02:38;15.70;60.40
49679;DHT22;35570;48.218;16.326;2023-05-28T03:05:04;15.60;60.80
49679;DHT22;35570;48.218;16.326;2023-05-28T03:07:30;15.70;61.30
49679;DHT22;35570;48.218;16.326;2023-05-28T03:09:57;15.70;60.50
49679;DHT22;35570;48.218;16.326;2023-05-28T03:12:43;15.70;60.60
49679;DHT22;35570;48.218;16.326;2023-05-28T03:15:09;15.70;60.90
49679;DHT22;35570;48.218;16.326;2023-05-28T03:17:35;15.70;62.00
49679;DHT22;35570;48.218;16.326;2023-05-28T03:20:00;15.70;59.80
49679;DHT22;35570;48.218;16.326;2023-05-28T03:22:26;15.60;59.80
49679;DHT22;35570;48.218;16.326;2023-05-28T03:24:52;15.60;61.00
49679;DHT22;35570;48.218;16.326;2023-05-28T03:27:17;15.60;61.20
49679;DHT22;35570;48.218;16.326;2023-05-28T03:29:43;15.60;60.90
49679;DHT22;35570;48.218;16.326;2023-05-28T03:32:09;15.50;61.50
49679;DHT22;35570;48.218;16.326;2023-05-28T03:34:40;15.50;60.60
49679;DHT22;35570;48.218;16.326;2023-05-28T03:37:06;15.50;60.70
49679;DHT22;35570;48.218;16.326;2023-05-28T03:39:31;15.50;62.20
49679;DHT22;35570;48.218;16.326;2023-05-28T03:41:57;15.50;62.20
49679;DHT22;35570;48.218;16.326;2023-05-28T03:44:23;15.50;62.50
49679;DHT22;35570;48.218;16.326;2023-05-28T03:46:50;15.50;61.40
49679;DHT22;35570;48.218;16.326;2023-05-28T03:49:17;15.60;61.10
49679;DHT22;35570;48.218;16.326;2023-05-28T03:52:06;15.50;61.00
49679;DHT22;35570;48.218;16.326;2023-05-28T03:54:32;15.50;62.00
49679;DHT22;35570;48.218;16.326;2023-05-28T03:56:58;15.50;61.50
49679;DHT22;35570;48.218;16.326;2023-05-28T03:59:24;15.40;62.10
49679;DHT22;35570;48.218;16.326;2023-05-28T04:02:27;15.40;61.80
49679;DHT22;35570;48.218;16.326;2023-05-28T04:04:52;15.40;62.60
49679;DHT22;35570;48.218;16.326;2023-05-28T04:07:18;15.40;62.00
49679;DHT22;35570;48.218;16.326;2023-05-28T04:10:10;15.50;62.90
49679;DHT22;35570;48.218;16.326;2023-05-28T04:12:36;15.50;62.90
49679;DHT22;35570;48.218;16.326;2023-05-28T04:15:01;15.50;62.40
49679;DHT22;35570;48.218;16.326;2023-05-28T04:17:29;15.60;62.30
49679;DHT22;35570;48.218;16.326;2023-05-28T04:19:55;15.60;62.20
49679;DHT22;35570;48.218;16.326;2023-05-28T04:22:20;15.60;62.70
49679;DHT22;35570;48.218;16.326;2023-05-28T04:24:49;15.60;62.90
49679;DHT22;35570;48.218;16.326;2023-05-28T04:27:17;15.70;62.80
49679;DHT22;35570;48.218;16.326;2023-05-28T04:29:42;15.70;62.50
49679;DHT22;35570;48.218;16.326;2023-05-28T04:32:13;15.80;62.10
49679;DHT22;35570;48.218;16.326;2023-05-28T04:34:39;15.80;62.60
49679;DHT22;35570;48.218;16.326;2023-05-28T04:37:08;15.80;61.60
49679;DHT22;35570;48.218;16.326;2023-05-28T04:39:34;15.80;61.50
49679;DHT22;35570;48.218;16.326;2023-05-28T04:42:00;15.80;62.80
49679;DHT22;35570;48.218;16.326;2023-05-28T04:44:59;15.80;62.30
49679;DHT22;35570;48.218;16.326;2023-05-28T04:47:25;15.90;61.30
49679;DHT22;35570;48.218;16.326;2023-05-28T04:49:51;15.90;61.70
49679;DHT22;35570;48.218;16.326;2023-05-28T04:52:16;16.00;61.80
49679;DHT22;35570;48.218;16.326;2023-05-28T04:54:45;16.00;62.80
49679;DHT22;35570;48.218;16.326;2023-05-28T04:57:10;16.10;61.60
49679;DHT22;35570;48.218;16.326;2023-05-28T04:59:36;16.20;61.60
49679;DHT22;35570;48.218;16.326;2023-05-28T05:02:02;16.20;60.50
49679;DHT22;35570;48.218;16.326;2023-05-28T05:04:29;16.20;60.80
49679;DHT22;35570;48.218;16.326;2023-05-28T05:06:54;16.10;61.60
49679;DHT22;35570;48.218;16.326;2023-05-28T05:09:20;16.20;61.30
49679;DHT22;35570;48.218;16.326;2023-05-28T05:11:46;16.20;61.90
49679;DHT22;35570;48.218;16.326;2023-05-28T05:14:12;16.30;60.40
49679;DHT22;35570;48.218;16.326;2023-05-28T05:16:37;16.30;61.10
49679;DHT22;35570;48.218;16.326;2023-05-28T05:19:03;16.30;61.20
49679;DHT22;35570;48.218;16.326;2023-05-28T05:21:29;16.40;61.50
49679;DHT22;35570;48.218;16.326;2023-05-28T05:23:54;16.40;61.00
49679;DHT22;35570;48.218;16.326;2023-05-28T05:26:20;16.50;60.70
49679;DHT22;35570;48.218;16.326;2023-05-28T05:28:46;16.50;60.90
49679;DHT22;35570;48.218;16.326;2023-05-28T05:31:12;16.60;61.70
49679;DHT22;35570;48.218;16.326;2023-05-28T05:33:38;16.60;61.60
49679;DHT22;35570;48.218;16.326;2023-05-28T05:36:04;16.60;61.70
49679;DHT22;35570;48.218;16.326;2023-05-28T05:38:30;16.70;61.10
49679;DHT22;35570;48.218;16.326;2023-05-28T05:40:56;16.70;60.30
49679;DHT22;35570;48.218;16.326;2023-05-28T05:43:22;16.80;61.20
49679;DHT22;35570;48.218;16.326;2023-05-28T05:45:48;16.90;60.90
49679;DHT22;35570;48.218;16.326;2023-05-28T05:48:25;17.00;61.30
49679;DHT22;35570;48.218;16.326;2023-05-28T05:50:52;17.00;61.00
49679;DHT22;35570;48.218;16.326;2023-05-28T05:53:24;17.10;60.90
49679;DHT22;35570;48.218;16.326;2023-05-28T05:55:50;17.10;59.80
49679;DHT22;35570;48.218;16.326;2023-05-28T05:58:16;17.10;60.20
49679;DHT22;35570;48.218;16.326;2023-05-28T06:00:42;17.10;60.00
49679;DHT22;35570;48.218;16.326;2023-05-28T06:03:08;17.20;60.60
49679;DHT22;35570;48.218;16.326;2023-05-28T06:05:34;17.20;60.90
49679;DHT22;35570;48.218;16.326;2023-05-28T06:08:00;17.30;60.00
49679;DHT22;35570;48.218;16.326;2023-05-28T06:10:28;17.30;59.90
49679;DHT22;35570;48.218;16.326;2023-05-28T06:12:53;17.30;59.30
49679;DHT22;35570;48.218;16.326;2023-05-28T06:15:20;17.30;59.90
49679;DHT22;35570;48.218;16.326;2023-05-28T06:17:47;17.30;58.70
49679;DHT22;35570;48.218;16.326;2023-05-28T06:20:12;17.40;60.10
49679;DHT22;35570;48.218;16.326;2023-05-28T06:22:39;17.40;60.00
49679;DHT22;35570;48.218;16.326;2023-05-28T06:25:05;17.50;60.50
49679;DHT22;35570;48.218;16.326;2023-05-28T06:27:32;17.60;60.00
49679;DHT22;35570;48.218;16.326;2023-05-28T06:29:57;17.70;59.40
49679;DHT22;35570;48.218;16.326;2023-05-28T06:32:23;17.70;58.20
49679;DHT22;35570;48.218;16.326;2023-05-28T06:34:49;17.70;58.00
49679;DHT22;35570;48.218;16.326;2023-05-28T06:37:14;17.60;58.50
49679;DHT22;35570;48.218;16.326;2023-05-28T06:39:40;17.70;58.50
49679;DHT22;35570;48.218;16.326;2023-05-28T06:42:06;17.70;57.90
49679;DHT22;35570;48.218;16.326;2023-05-28T06:44:33;17.70;58.50
49679;DHT22;35570;48.218;16.326;2023-05-28T06:46:58;17.70;57.90
49679;DHT22;35570;48.218;16.326;2023-05-28T06:49:24;17.70;57.60
49679;DHT22;35570;48.218;16.326;2023-05-28T06:51:51;17.70;58.30
49679;DHT22;35570;48.218;16.326;2023-05-28T06:54:17;17.70;58.40
49679;DHT22;35570;48.218;16.326;2023-05-28T06:56:42;17.80;59.20
49679;DHT22;35570;48.218;16.326;2023-05-28T06:59:08;18.00;60.90
49679;DHT22;35570;48.218;16.326;2023-05-28T07:01:33;18.10;59.60
49679;DHT22;35570;48.218;16.326;2023-05-28T07:03:59;18.10;58.20
49679;DHT22;35570;48.218;16.326;2023-05-28T07:06:25;18.20;59.50
49679;DHT22;35570;48.218;16.326;2023-05-28T07:08:51;18.40;60.40
49679;DHT22;35570;48.218;16.326;2023-05-28T07:11:17;18.50;59.90
49679;DHT22;35570;48.218;16.326;2023-05-28T07:13:44;18.60;59.50
49679;DHT22;35570;48.218;16.326;2023-05-28T07:16:10;18.70;59.40
49679;DHT22;35570;48.218;16.326;2023-05-28T07:18:36;18.80;58.30
49679;DHT22;35570;48.218;16.326;2023-05-28T07:21:03;18.90;58.80
49679;DHT22;35570;48.218;16.326;2023-05-28T07:23:30;19.00;58.70
49679;DHT22;35570;48.218;16.326;2023-05-28T07:25:56;19.10;57.80
49679;DHT22;35570;48.218;16.326;2023-05-28T07:28:21;19.20;56.80
49679;DHT22;35570;48.218;16.326;2023-05-28T07:30:47;19.30;59.30
49679;DHT22;35570;48.218;16.326;2023-05-28T07:33:13;19.30;55.60
49679;DHT22;35570;48.218;16.326;2023-05-28T07:35:38;19.30;56.10
49679;DHT22;35570;48.218;16.326;2023-05-28T07:38:04;19.30;56.40
49679;DHT22;35570;48.218;16.326;2023-05-28T07:40:30;19.30;56.40
49679;DHT22;35570;48.218;16.326;2023-05-28T07:42:55;19.40;58.40
49679;DHT22;35570;48.218;16.326;2023-05-28T07:45:21;19.50;55.40
49679;DHT22;35570;48.218;16.326;2023-05-28T07:47:46;19.50;55.40
49679;DHT22;35570;48.218;16.326;2023-05-28T07:50:12;19.50;57.10
49679;DHT22;35570;48.218;16.326;2023-05-28T07:52:38;19.70;57.90
49679;DHT22;35570;48.218;16.326;2023-05-28T07:55:06;19.80;57.70
49679;DHT22;35570;48.218;16.326;2023-05-28T07:57:32;20.00;58.40
49679;DHT22;35570;48.218;16.326;2023-05-28T07:59:59;20.10;57.30
49679;DHT22;35570;48.218;16.326;2023-05-28T08:02:26;20.30;58.00
49679;DHT22;35570;48.218;16.326;2023-05-28T08:04:52;20.40;57.60
49679;DHT22;35570;48.218;16.326;2023-05-28T08:07:19;20.60;58.40
49679;DHT22;35570;48.218;16.326;2023-05-28T08:09:45;20.70;57.30
49679;DHT22;35570;48.218;16.326;2023-05-28T08:12:10;20.90;56.50
49679;DHT22;35570;48.218;16.326;2023-05-28T08:14:36;21.00;56.20
49679;DHT22;35570;48.218;16.326;2023-05-28T08:17:02;21.10;57.70
49679;DHT22;35570;48.218;16.326;2023-05-28T08:19:27;21.20;55.70
49679;DHT22;35570;48.218;16.326;2023-05-28T08:21:53;21.20;56.20
49679;DHT22;35570;48.218;16.326;2023-05-28T08:24:19;21.30;57.60
49679;DHT22;35570;48.218;16.326;2023-05-28T08:26:46;21.40;56.60
49679;DHT22;35570;48.218;16.326;2023-05-28T08:29:11;21.50;55.20
49679;DHT22;35570;48.218;16.326;2023-05-28T08:31:37;21.60;56.60
49679;DHT22;35570;48.218;16.326;2023-05-28T08:34:03;21.70;55.90
49679;DHT22;35570;48.218;16.326;2023-05-28T08:36:29;21.80;55.20
49679;DHT22;35570;48.218;16.326;2023-05-28T08:38:55;22.00;55.70
49679;DHT22;35570;48.218;16.326;2023-05-28T08:41:20;22.10;55.60
49679;DHT22;35570;48.218;16.326;2023-05-28T08:43:47;22.20;55.60
49679;DHT22;35570;48.218;16.326;2023-05-28T08:46:13;22.20;53.70
49679;DHT22;35570;48.218;16.326;2023-05-28T08:48:40;22.20;54.80
49679;DHT22;35570;48.218;16.326;2023-05-28T08:51:06;22.30;55.00
49679;DHT22;35570;48.218;16.326;2023-05-28T08:53:46;22.40;55.90
49679;DHT22;35570;48.218;16.326;2023-05-28T08:56:13;22.60;55.00
49679;DHT22;35570;48.218;16.326;2023-05-28T08:58:39;22.60;53.40
49679;DHT22;35570;48.218;16.326;2023-05-28T09:01:06;22.50;53.00
49679;DHT22;35570;48.218;16.326;2023-05-28T09:03:37;22.60;54.30
49679;DHT22;35570;48.218;16.326;2023-05-28T09:06:03;22.70;53.40
49679;DHT22;35570;48.218;16.326;2023-05-28T09:08:29;22.80;53.50
49679;DHT22;35570;48.218;16.326;2023-05-28T09:11:09;22.90;53.70
49679;DHT22;35570;48.218;16.326;2023-05-28T09:13:35;23.00;52.10
49679;DHT22;35570;48.218;16.326;2023-05-28T09:16:05;23.10;51.90
49679;DHT22;35570;48.218;16.326;2023-05-28T09:18:31;23.20;53.10
49679;DHT22;35570;48.218;16.326;2023-05-28T09:20:59;23.30;54.20
49679;DHT22;35570;48.218;16.326;2023-05-28T09:23:26;23.50;53.30
49679;DHT22;35570;48.218;16.326;2023-05-28T09:25:55;23.60;51.80
49679;DHT22;35570;48.218;16.326;2023-05-28T09:28:26;23.70;51.50
49679;DHT22;35570;48.218;16.326;2023-05-28T09:30:56;23.90;53.50
49679;DHT22;35570;48.218;16.326;2023-05-28T09:33:27;24.00;53.70
49679;DHT22;35570;48.218;16.326;2023-05-28T09:35:59;24.20;51.90
49679;DHT22;35570;48.218;16.326;2023-05-28T09:38:25;24.30;52.10
49679;DHT22;35570;48.218;16.326;2023-05-28T09:40:53;24.40;50.60
49679;DHT22;35570;48.218;16.326;2023-05-28T09:43:29;24.50;50.80
49679;DHT22;35570;48.218;16.326;2023-05-28T09:46:08;24.60;51.10
49679;DHT22;35570;48.218;16.326;2023-05-28T09:48:34;24.70;51.20
49679;DHT22;35570;48.218;16.326;2023-05-28T09:51:03;24.80;51.70
49679;DHT22;35570;48.218;16.326;2023-05-28T09:53:31;25.00;50.50
49679;DHT22;35570;48.218;16.326;2023-05-28T09:56:00;25.10;51.20
49679;DHT22;35570;48.218;16.326;2023-05-28T09:58:31;25.20;50.00
49679;DHT22;35570;48.218;16.326;2023-05-28T10:01:01;25.30;50.30
49679;DHT22;35570;48.218;16.326;2023-05-28T10:03:37;25.40;50.00
49679;DHT22;35570;48.218;16.326;2023-05-28T10:06:09;25.40;48.40
49679;DHT22;35570;48.218;16.326;2023-05-28T10:08:37;25.50;50.00
49679;DHT22;35570;48.218;16.326;2023-05-28T10:11:06;25.60;50.50
49679;DHT22;35570;48.218;16.326;2023-05-28T10:13:34;25.70;48.00
49679;DHT22;35570;48.218;16.326;2023-05-28T10:16:00;25.70;49.90
49679;DHT22;35570;48.218;16.326;2023-05-28T10:18:26;25.80;48.70
49679;DHT22;35570;48.218;16.326;2023-05-28T10:20:53;25.90;47.40
49679;DHT22;35570;48.218;16.326;2023-05-28T10:23:20;25.90;47.20
49679;DHT22;35570;48.218;16.326;2023-05-28T10:25:46;25.90;48.30
49679;DHT22;35570;48.218;16.326;2023-05-28T10:28:15;25.90;47.80
49679;DHT22;35570;48.218;16.326;2023-05-28T10:30:42;26.00;48.30
49679;DHT22;35570;48.218;16.326;2023-05-28T10:33:10;26.10;46.70
49679;DHT22;35570;48.218;16.326;2023-05-28T10:35:53;26.30;47.30
49679;DHT22;35570;48.218;16.326;2023-05-28T10:38:19;26.40;47.20
49679;DHT22;35570;48.218;16.326;2023-05-28T10:40:45;26.50;47.80
49679;DHT22;35570;48.218;16.326;2023-05-28T10:48:40;27.20;46.60
49679;DHT22;35570;48.218;16.326;2023-05-28T10:51:07;27.40;47.50
49679;DHT22;35570;48.218;16.326;2023-05-28T10:53:33;27.50;46.50
49679;DHT22;35570;48.218;16.326;2023-05-28T10:56:01;27.70;46.90
49679;DHT22;35570;48.218;16.326;2023-05-28T10:58:34;27.80;48.20
49679;DHT22;35570;48.218;16.326;2023-05-28T11:01:19;27.80;45.10
49679;DHT22;35570;48.218;16.326;2023-05-28T11:03:52;27.80;46.80
49679;DHT22;35570;48.218;16.326;2023-05-28T11:06:19;27.90;46.70
49679;DHT22;35570;48.218;16.326;2023-05-28T11:08:46;28.00;46.60
49679;DHT22;35570;48.218;16.326;2023-05-28T11:11:13;28.10;44.90
49679;DHT22;35570;48.218;16.326;2023-05-28T11:13:45;28.20;46.80
49679;DHT22;35570;48.218;16.326;2023-05-28T11:16:12;28.40;45.40
49679;DHT22;35570;48.218;16.326;2023-05-28T11:18:38;28.40;45.00
49679;DHT22;35570;48.218;16.326;2023-05-28T11:21:08;28.50;44.70
49679;DHT22;35570;48.218;16.326;2023-05-28T11:23:37;28.50;43.60
49679;DHT22;35570;48.218;16.326;2023-05-28T11:26:06;28.40;46.00
49679;DHT22;35570;48.218;16.326;2023-05-28T11:28:48;28.30;45.60
49679;DHT22;35570;48.218;16.326;2023-05-28T11:31:13;28.30;45.10
49679;DHT22;35570;48.218;16.326;2023-05-28T11:33:39;28.50;45.50
49679;DHT22;35570;48.218;16.326;2023-05-28T11:36:05;28.60;45.90
49679;DHT22;35570;48.218;16.326;2023-05-28T11:38:30;28.70;44.50
49679;DHT22;35570;48.218;16.326;2023-05-28T11:41:02;28.90;45.20
49679;DHT22;35570;48.218;16.326;2023-05-28T11:43:28;29.10;45.00
49679;DHT22;35570;48.218;16.326;2023-05-28T11:46:00;29.30;44.90
49679;DHT22;35570;48.218;16.326;2023-05-28T11:48:26;29.40;43.60
49679;DHT22;35570;48.218;16.326;2023-05-28T11:50:57;29.40;42.80
49679;DHT22;35570;48.218;16.326;2023-05-28T11:53:23;29.50;43.60
49679;DHT22;35570;48.218;16.326;2023-05-28T11:55:49;29.50;42.70
49679;DHT22;35570;48.218;16.326;2023-05-28T11:58:15;29.50;44.40
49679;DHT22;35570;48.218;16.326;2023-05-28T12:00:40;29.60;43.20
49679;DHT22;35570;48.218;16.326;2023-05-28T12:03:10;29.70;43.50
49679;DHT22;35570;48.218;16.326;2023-05-28T12:05:37;29.50;41.30
49679;DHT22;35570;48.218;16.326;2023-05-28T12:08:04;29.10;42.30
49679;DHT22;35570;48.218;16.326;2023-05-28T12:10:30;28.90;44.10
49679;DHT22;35570;48.218;16.326;2023-05-28T12:12:56;28.90;44.10
49679;DHT22;35570;48.218;16.326;2023-05-28T12:15:24;29.00;43.60
49679;DHT22;35570;48.218;16.326;2023-05-28T12:17:57;29.00;44.60
49679;DHT22;35570;48.218;16.326;2023-05-28T12:23:02;29.20;43.90
49679;DHT22;35570;48.218;16.326;2023-05-28T12:25:34;29.30;43.70
49679;DHT22;35570;48.218;16.326;2023-05-28T12:28:00;29.50;42.60
49679;DHT22;35570;48.218;16.326;2023-05-28T12:30:25;29.50;43.60
49679;DHT22;35570;48.218;16.326;2023-05-28T12:32:51;29.60;41.80
49679;DHT22;35570;48.218;16.326;2023-05-28T12:35:17;29.60;41.10
49679;DHT22;35570;48.218;16.326;2023-05-28T12:37:42;29.50;39.90
49679;DHT22;35570;48.218;16.326;2023-05-28T12:40:08;29.20;41.70
49679;DHT22;35570;48.218;16.326;2023-05-28T12:42:35;29.10;43.10
49679;DHT22;35570;48.218;16.326;2023-05-28T12:45:00;29.10;42.70
49679;DHT22;35570;48.218;16.326;2023-05-28T12:47:26;29.20;44.10
49679;DHT22;35570;48.218;16.326;2023-05-28T12:49:51;29.40;43.80
49679;DHT22;35570;48.218;16.326;2023-05-28T12:52:17;29.50;43.80
49679;DHT22;35570;48.218;16.326;2023-05-28T12:54:42;29.50;42.60
49679;DHT22;35570;48.218;16.326;2023-05-28T12:57:08;29.50;43.30
49679;DHT22;35570;48.218;16.326;2023-05-28T12:59:34;29.60;44.60
49679;DHT22;35570;48.218;16.326;2023-05-28T13:01:59;29.70;43.00
49679;DHT22;35570;48.218;16.326;2023-05-28T13:04:25;29.60;43.50
49679;DHT22;35570;48.218;16.326;2023-05-28T13:06:51;29.30;42.70
49679;DHT22;35570;48.218;16.326;2023-05-28T13:09:17;28.90;42.90
49679;DHT22;35570;48.218;16.326;2023-05-28T13:11:43;28.80;44.30
49679;DHT22;35570;48.218;16.326;2023-05-28T13:14:09;28.80;44.70
49679;DHT22;35570;48.218;16.326;2023-05-28T13:16:36;28.70;44.70
49679;DHT22;35570;48.218;16.326;2023-05-28T13:19:05;28.60;44.90
49679;DHT22;35570;48.218;16.326;2023-05-28T13:21:31;28.90;45.10
49679;DHT22;35570;48.218;16.326;2023-05-28T13:23:58;29.10;43.80
49679;DHT22;35570;48.218;16.326;2023-05-28T13:26:25;29.50;43.30
49679;DHT22;35570;48.218;16.326;2023-05-28T13:28:51;30.00;43.10
49679;DHT22;35570;48.218;16.326;2023-05-28T13:31:16;30.40;43.60
49679;DHT22;35570;48.218;16.326;2023-05-28T13:33:42;30.80;43.10
49679;DHT22;35570;48.218;16.326;2023-05-28T13:36:08;31.10;42.00
49679;DHT22;35570;48.218;16.326;2023-05-28T13:38:33;31.50;42.10
49679;DHT22;35570;48.218;16.326;2023-05-28T13:41:00;31.50;41.20
49679;DHT22;35570;48.218;16.326;2023-05-28T13:43:28;31.80;41.40
49679;DHT22;35570;48.218;16.326;2023-05-28T13:45:54;32.00;41.30
49679;DHT22;35570;48.218;16.326;2023-05-28T13:48:20;32.20;40.80
49679;DHT22;35570;48.218;16.326;2023-05-28T13:50:46;32.40;41.40
49679;DHT22;35570;48.218;16.326;2023-05-28T13:53:11;32.60;40.40
49679;DHT22;35570;48.218;16.326;2023-05-28T13:55:37;33.10;40.70
49679;DHT22;35570;48.218;16.326;2023-05-28T13:58:02;33.70;39.90
49679;DHT22;35570;48.218;16.326;2023-05-28T14:00:28;33.90;40.30
49679;DHT22;35570;48.218;16.326;2023-05-28T14:02:54;34.00;39.00
49679;DHT22;35570;48.218;16.326;2023-05-28T14:05:19;34.10;38.70
49679;DHT22;35570;48.218;16.326;2023-05-28T14:07:45;34.20;37.00
49679;DHT22;35570;48.218;16.326;2023-05-28T14:10:11;34.10;38.00
49679;DHT22;35570;48.218;16.326;2023-05-28T14:12:36;35.10;39.00
49679;DHT22;35570;48.218;16.326;2023-05-28T14:17:29;36.70;36.40
49679;DHT22;35570;48.218;16.326;2023-05-28T14:19:55;37.50;36.00
49679;DHT22;35570;48.218;16.326;2023-05-28T14:22:21;38.30;34.80
49679;DHT22;35570;48.218;16.326;2023-05-28T14:24:46;38.90;33.80
49679;DHT22;35570;48.218;16.326;2023-05-28T14:27:12;39.20;33.50
49679;DHT22;35570;48.218;16.326;2023-05-28T14:29:37;39.60;32.60
49679;DHT22;35570;48.218;16.326;2023-05-28T14:32:03;39.60;32.40
49679;DHT22;35570;48.218;16.326;2023-05-28T14:34:29;39.70;32.10
49679;DHT22;35570;48.218;16.326;2023-05-28T14:36:54;39.80;32.00
49679;DHT22;35570;48.218;16.326;2023-05-28T14:39:20;39.60;31.00
49679;DHT22;35570;48.218;16.326;2023-05-28T14:41:46;39.50;31.70
49679;DHT22;35570;48.218;16.326;2023-05-28T14:44:11;39.40;31.90
49679;DHT22;35570;48.218;16.326;2023-05-28T14:46:37;39.00;32.60
49679;DHT22;35570;48.218;16.326;2023-05-28T14:49:02;38.20;32.00
49679;DHT22;35570;48.218;16.326;2023-05-28T14:51:28;37.00;35.50
49679;DHT22;35570;48.218;16.326;2023-05-28T14:53:54;35.70;35.40
49679;DHT22;35570;48.218;16.326;2023-05-28T14:56:21;34.40;36.10
49679;DHT22;35570;48.218;16.326;2023-05-28T14:58:46;33.20;37.40
49679;DHT22;35570;48.218;16.326;2023-05-28T15:01:12;32.00;39.10
49679;DHT22;35570;48.218;16.326;2023-05-28T15:03:38;31.00;39.50
49679;DHT22;35570;48.218;16.326;2023-05-28T15:06:03;30.30;40.60
49679;DHT22;35570;48.218;16.326;2023-05-28T15:08:29;29.80;41.50
49679;DHT22;35570;48.218;16.326;2023-05-28T15:10:55;29.40;41.90
49679;DHT22;35570;48.218;16.326;2023-05-28T15:13:22;29.10;41.70
49679;DHT22;35570;48.218;16.326;2023-05-28T15:15:47;28.90;43.00
49679;DHT22;35570;48.218;16.326;2023-05-28T15:18:13;28.70;42.50
49679;DHT22;35570;48.218;16.326;2023-05-28T15:20:39;28.50;43.10
49679;DHT22;35570;48.218;16.326;2023-05-28T15:23:04;28.30;44.10
49679;DHT22;35570;48.218;16.326;2023-05-28T15:25:30;28.20;44.20
49679;DHT22;35570;48.218;16.326;2023-05-28T15:27:56;28.10;45.00